sensor_id;sensor_type;location;lat;lon;timestamp;P1;durP1;ratioP1;P2;durP2;ratioP2
38379;SDS011;38377;47.418;18.882;2023-05-16T00:00:51;3.10;;;2.80;;
38379;SDS011;38377;47.418;18.882;2023-05-16T00:03:18;2.88;;;2.10;;
38379;SDS011;38377;47.418;18.882;2023-05-16T00:05:44;2.85;;;1.75;;
38379;SDS011;38377;47.418;18.882;2023-05-16T00:08:10;1.75;;;1.65;;
38379;SDS011;38377;47.418;18.882;2023-05-16T00:10:36;2.42;;;1.95;;
38379;SDS011;38377;47.418;18.882;2023-05-16T00:13:02;3.53;;;2.05;;
38379;SDS011;38377;47.418;18.882;2023-05-16T00:15:28;1.95;;;1.65;;
38379;SDS011;38377;47.418;18.882;2023-05-16T00:17:57;2.40;;;2.20;;
38379;SDS011;38377;47.418;18.882;2023-05-16T00:20:24;2.83;;;2.40;;
38379;SDS011;38377;47.418;18.882;2023-05-16T00:22:51;2.30;;;2.10;;
38379;SDS011;38377;47.418;18.882;2023-05-16T00:25:17;5.25;;;2.55;;
38379;SDS011;38377;47.418;18.882;2023-05-16T00:27:43;3.03;;;2.55;;
38379;SDS011;38377;47.418;18.882;2023-05-16T00:30:09;3.15;;;2.42;;
38379;SDS011;38377;47.418;18.882;2023-05-16T00:32:35;2.95;;;2.70;;
38379;SDS011;38377;47.418;18.882;2023-05-16T00:35:01;3.95;;;2.55;;
38379;SDS011;38377;47.418;18.882;2023-05-16T00:37:27;2.50;;;2.20;;
38379;SDS011;38377;47.418;18.882;2023-05-16T00:39:52;3.00;;;2.53;;
38379;SDS011;38377;47.418;18.882;2023-05-16T00:42:18;2.83;;;2.40;;
38379;SDS011;38377;47.418;18.882;2023-05-16T00:44:45;2.30;;;2.08;;
38379;SDS011;38377;47.418;18.882;2023-05-16T00:47:13;3.95;;;1.92;;
38379;SDS011;38377;47.418;18.882;2023-05-16T00:49:40;2.70;;;2.00;;
38379;SDS011;38377;47.418;18.882;2023-05-16T00:52:06;2.72;;;2.00;;
38379;SDS011;38377;47.418;18.882;2023-05-16T00:54:32;2.15;;;1.60;;
38379;SDS011;38377;47.418;18.882;2023-05-16T00:56:58;2.08;;;1.73;;
38379;SDS011;38377;47.418;18.882;2023-05-16T00:59:24;2.33;;;2.03;;
38379;SDS011;38377;47.418;18.882;2023-05-16T01:01:50;3.53;;;2.20;;
38379;SDS011;38377;47.418;18.882;2023-05-16T01:04:17;3.10;;;2.13;;
38379;SDS011;38377;47.418;18.882;2023-05-16T01:06:43;2.28;;;1.80;;
38379;SDS011;38377;47.418;18.882;2023-05-16T01:09:09;1.92;;;1.70;;
38379;SDS011;38377;47.418;18.882;2023-05-16T01:11:46;2.10;;;1.70;;
38379;SDS011;38377;47.418;18.882;2023-05-16T01:14:24;1.70;;;1.60;;
38379;SDS011;38377;47.418;18.882;2023-05-16T01:22:49;2.55;;;1.00;;
38379;SDS011;38377;47.418;18.882;2023-05-16T01:25:31;1.38;;;1.00;;
38379;SDS011;38377;47.418;18.882;2023-05-16T01:28:22;2.03;;;1.25;;
38379;SDS011;38377;47.418;18.882;2023-05-16T01:30:50;1.50;;;1.40;;
38379;SDS011;38377;47.418;18.882;2023-05-16T01:33:15;1.90;;;1.52;;
38379;SDS011;38377;47.418;18.882;2023-05-16T01:35:54;1.98;;;1.20;;
38379;SDS011;38377;47.418;18.882;2023-05-16T01:38:37;2.10;;;1.20;;
38379;SDS011;38377;47.418;18.882;2023-05-16T01:41:24;1.48;;;1.35;;
38379;SDS011;38377;47.418;18.882;2023-05-16T01:43:59;2.75;;;1.35;;
38379;SDS011;38377;47.418;18.882;2023-05-16T01:46:30;1.42;;;1.33;;
38379;SDS011;38377;47.418;18.882;2023-05-16T01:49:14;1.98;;;1.10;;
38379;SDS011;38377;47.418;18.882;2023-05-16T01:51:53;1.48;;;0.93;;
38379;SDS011;38377;47.418;18.882;2023-05-16T01:54:23;1.23;;;1.10;;
38379;SDS011;38377;47.418;18.882;2023-05-16T01:56:51;2.17;;;1.10;;
38379;SDS011;38377;47.418;18.882;2023-05-16T01:59:27;1.00;;;0.90;;
38379;SDS011;38377;47.418;18.882;2023-05-16T02:01:53;1.30;;;1.10;;
38379;SDS011;38377;47.418;18.882;2023-05-16T02:04:21;2.58;;;1.10;;
38379;SDS011;38377;47.418;18.882;2023-05-16T02:06:48;1.00;;;0.90;;
38379;SDS011;38377;47.418;18.882;2023-05-16T02:09:14;1.33;;;1.23;;
38379;SDS011;38377;47.418;18.882;2023-05-16T02:11:40;1.00;;;0.90;;
38379;SDS011;38377;47.418;18.882;2023-05-16T02:14:06;1.52;;;1.23;;
38379;SDS011;38377;47.418;18.882;2023-05-16T02:16:32;1.52;;;1.42;;
38379;SDS011;38377;47.418;18.882;2023-05-16T02:18:58;1.30;;;1.20;;
38379;SDS011;38377;47.418;18.882;2023-05-16T02:21:23;2.17;;;1.40;;
38379;SDS011;38377;47.418;18.882;2023-05-16T02:23:49;1.60;;;1.50;;
38379;SDS011;38377;47.418;18.882;2023-05-16T02:26:15;1.60;;;1.40;;
38379;SDS011;38377;47.418;18.882;2023-05-16T02:28:41;2.40;;;1.50;;
38379;SDS011;38377;47.418;18.882;2023-05-16T02:31:06;2.10;;;1.35;;
38379;SDS011;38377;47.418;18.882;2023-05-16T02:33:32;1.60;;;1.50;;
38379;SDS011;38377;47.418;18.882;2023-05-16T02:35:58;1.75;;;1.60;;
38379;SDS011;38377;47.418;18.882;2023-05-16T02:38:24;4.03;;;1.90;;
38379;SDS011;38377;47.418;18.882;2023-05-16T02:40:50;2.80;;;1.95;;
38379;SDS011;38377;47.418;18.882;2023-05-16T02:43:15;1.90;;;1.80;;
38379;SDS011;38377;47.418;18.882;2023-05-16T02:45:41;3.47;;;1.90;;
38379;SDS011;38377;47.418;18.882;2023-05-16T02:48:07;10.23;;;1.90;;
38379;SDS011;38377;47.418;18.882;2023-05-16T02:50:32;2.47;;;1.20;;
38379;SDS011;38377;47.418;18.882;2023-05-16T02:52:59;1.75;;;1.63;;
38379;SDS011;38377;47.418;18.882;2023-05-16T02:55:26;1.52;;;1.30;;
38379;SDS011;38377;47.418;18.882;2023-05-16T02:57:53;2.63;;;1.60;;
38379;SDS011;38377;47.418;18.882;2023-05-16T03:00:18;2.08;;;1.40;;
38379;SDS011;38377;47.418;18.882;2023-05-16T03:02:44;1.88;;;1.67;;
38379;SDS011;38377;47.418;18.882;2023-05-16T03:05:10;1.25;;;1.13;;
38379;SDS011;38377;47.418;18.882;2023-05-16T03:07:37;1.55;;;1.40;;
38379;SDS011;38377;47.418;18.882;2023-05-16T03:10:03;2.17;;;1.45;;
38379;SDS011;38377;47.418;18.882;2023-05-16T03:12:29;2.83;;;1.90;;
38379;SDS011;38377;47.418;18.882;2023-05-16T03:14:55;1.55;;;1.30;;
38379;SDS011;38377;47.418;18.882;2023-05-16T03:17:21;1.45;;;1.35;;
38379;SDS011;38377;47.418;18.882;2023-05-16T03:19:47;5.65;;;2.63;;
38379;SDS011;38377;47.418;18.882;2023-05-16T03:22:13;1.30;;;1.17;;
38379;SDS011;38377;47.418;18.882;2023-05-16T03:24:39;1.52;;;1.40;;
38379;SDS011;38377;47.418;18.882;2023-05-16T03:27:04;1.83;;;1.30;;
38379;SDS011;38377;47.418;18.882;2023-05-16T03:29:30;1.52;;;1.33;;
38379;SDS011;38377;47.418;18.882;2023-05-16T03:31:56;1.75;;;1.40;;
38379;SDS011;38377;47.418;18.882;2023-05-16T03:34:22;1.40;;;1.30;;
38379;SDS011;38377;47.418;18.882;2023-05-16T03:36:48;1.48;;;1.30;;
38379;SDS011;38377;47.418;18.882;2023-05-16T03:39:15;2.70;;;1.30;;
38379;SDS011;38377;47.418;18.882;2023-05-16T03:41:41;2.65;;;1.30;;
38379;SDS011;38377;47.418;18.882;2023-05-16T03:44:06;1.42;;;1.20;;
38379;SDS011;38377;47.418;18.882;2023-05-16T03:46:32;2.25;;;1.20;;
38379;SDS011;38377;47.418;18.882;2023-05-16T03:48:59;1.90;;;1.33;;
38379;SDS011;38377;47.418;18.882;2023-05-16T03:51:25;1.80;;;1.40;;
38379;SDS011;38377;47.418;18.882;2023-05-16T03:53:50;1.75;;;1.35;;
38379;SDS011;38377;47.418;18.882;2023-05-16T03:56:16;1.45;;;1.35;;
38379;SDS011;38377;47.418;18.882;2023-05-16T03:58:42;2.55;;;1.27;;
38379;SDS011;38377;47.418;18.882;2023-05-16T04:01:08;1.35;;;1.25;;
38379;SDS011;38377;47.418;18.882;2023-05-16T04:03:33;1.40;;;1.30;;
38379;SDS011;38377;47.418;18.882;2023-05-16T04:06:00;1.77;;;1.23;;
38379;SDS011;38377;47.418;18.882;2023-05-16T04:08:25;2.17;;;1.40;;
38379;SDS011;38377;47.418;18.882;2023-05-16T04:10:51;1.58;;;1.20;;
38379;SDS011;38377;47.418;18.882;2023-05-16T04:13:17;1.40;;;1.30;;
38379;SDS011;38377;47.418;18.882;2023-05-16T04:15:43;1.40;;;1.17;;
38379;SDS011;38377;47.418;18.882;2023-05-16T04:18:08;1.70;;;1.55;;
38379;SDS011;38377;47.418;18.882;2023-05-16T04:20:34;1.80;;;1.40;;
38379;SDS011;38377;47.418;18.882;2023-05-16T04:23:01;1.83;;;1.20;;
38379;SDS011;38377;47.418;18.882;2023-05-16T04:25:26;2.88;;;1.50;;
38379;SDS011;38377;47.418;18.882;2023-05-16T04:27:53;2.03;;;1.33;;
38379;SDS011;38377;47.418;18.882;2023-05-16T04:30:19;2.95;;;1.80;;
38379;SDS011;38377;47.418;18.882;2023-05-16T04:32:45;2.28;;;1.60;;
38379;SDS011;38377;47.418;18.882;2023-05-16T04:35:10;2.35;;;1.40;;
38379;SDS011;38377;47.418;18.882;2023-05-16T04:37:37;1.85;;;1.75;;
38379;SDS011;38377;47.418;18.882;2023-05-16T04:40:02;4.57;;;3.90;;
38379;SDS011;38377;47.418;18.882;2023-05-16T04:42:28;4.30;;;3.90;;
38379;SDS011;38377;47.418;18.882;2023-05-16T04:44:54;2.05;;;1.85;;
38379;SDS011;38377;47.418;18.882;2023-05-16T04:47:21;3.75;;;2.20;;
38379;SDS011;38377;47.418;18.882;2023-05-16T04:49:46;2.10;;;1.90;;
38379;SDS011;38377;47.418;18.882;2023-05-16T04:52:12;2.28;;;1.95;;
38379;SDS011;38377;47.418;18.882;2023-05-16T04:54:38;2.60;;;2.40;;
38379;SDS011;38377;47.418;18.882;2023-05-16T04:57:03;2.72;;;2.53;;
38379;SDS011;38377;47.418;18.882;2023-05-16T04:59:29;2.78;;;2.33;;
38379;SDS011;38377;47.418;18.882;2023-05-16T05:01:55;2.58;;;2.38;;
38379;SDS011;38377;47.418;18.882;2023-05-16T05:04:21;3.55;;;3.25;;
38379;SDS011;38377;47.418;18.882;2023-05-16T05:06:47;2.30;;;2.10;;
38379;SDS011;38377;47.418;18.882;2023-05-16T05:09:12;2.63;;;1.85;;
38379;SDS011;38377;47.418;18.882;2023-05-16T05:11:38;1.80;;;1.50;;
38379;SDS011;38377;47.418;18.882;2023-05-16T05:14:04;1.45;;;1.33;;
38379;SDS011;38377;47.418;18.882;2023-05-16T05:16:29;1.63;;;1.27;;
38379;SDS011;38377;47.418;18.882;2023-05-16T05:18:55;1.83;;;1.40;;
38379;SDS011;38377;47.418;18.882;2023-05-16T05:21:21;3.85;;;1.70;;
38379;SDS011;38377;47.418;18.882;2023-05-16T05:23:49;2.10;;;1.77;;
38379;SDS011;38377;47.418;18.882;2023-05-16T05:26:15;3.08;;;2.00;;
38379;SDS011;38377;47.418;18.882;2023-05-16T05:28:41;2.60;;;1.90;;
38379;SDS011;38377;47.418;18.882;2023-05-16T05:31:07;2.33;;;2.08;;
38379;SDS011;38377;47.418;18.882;2023-05-16T05:33:32;2.58;;;2.28;;
38379;SDS011;38377;47.418;18.882;2023-05-16T05:35:58;3.58;;;2.30;;
38379;SDS011;38377;47.418;18.882;2023-05-16T05:38:24;2.90;;;2.47;;
38379;SDS011;38377;47.418;18.882;2023-05-16T05:40:50;2.38;;;2.15;;
38379;SDS011;38377;47.418;18.882;2023-05-16T05:43:15;2.22;;;2.03;;
38379;SDS011;38377;47.418;18.882;2023-05-16T05:45:41;3.88;;;1.95;;
38379;SDS011;38377;47.418;18.882;2023-05-16T05:48:08;2.38;;;2.17;;
38379;SDS011;38377;47.418;18.882;2023-05-16T05:50:36;3.35;;;2.17;;
38379;SDS011;38377;47.418;18.882;2023-05-16T05:53:05;2.50;;;2.05;;
38379;SDS011;38377;47.418;18.882;2023-05-16T05:55:30;2.15;;;1.88;;
38379;SDS011;38377;47.418;18.882;2023-05-16T05:57:56;2.97;;;2.30;;
38379;SDS011;38377;47.418;18.882;2023-05-16T06:00:22;3.72;;;2.30;;
38379;SDS011;38377;47.418;18.882;2023-05-16T06:02:47;2.70;;;2.25;;
38379;SDS011;38377;47.418;18.882;2023-05-16T06:05:13;4.22;;;2.40;;
38379;SDS011;38377;47.418;18.882;2023-05-16T06:07:39;2.85;;;2.58;;
38379;SDS011;38377;47.418;18.882;2023-05-16T06:10:04;3.28;;;2.70;;
38379;SDS011;38377;47.418;18.882;2023-05-16T06:12:32;3.08;;;2.70;;
38379;SDS011;38377;47.418;18.882;2023-05-16T06:15:00;3.15;;;2.85;;
38379;SDS011;38377;47.418;18.882;2023-05-16T06:17:26;2.83;;;2.40;;
38379;SDS011;38377;47.418;18.882;2023-05-16T06:19:53;3.17;;;2.30;;
38379;SDS011;38377;47.418;18.882;2023-05-16T06:22:19;2.47;;;2.25;;
38379;SDS011;38377;47.418;18.882;2023-05-16T06:24:44;2.67;;;2.05;;
38379;SDS011;38377;47.418;18.882;2023-05-16T06:27:10;2.28;;;2.08;;
38379;SDS011;38377;47.418;18.882;2023-05-16T06:29:36;3.67;;;2.55;;
38379;SDS011;38377;47.418;18.882;2023-05-16T06:32:03;2.88;;;2.47;;
38379;SDS011;38377;47.418;18.882;2023-05-16T06:34:29;2.72;;;2.35;;
38379;SDS011;38377;47.418;18.882;2023-05-16T06:36:56;2.45;;;2.25;;
38379;SDS011;38377;47.418;18.882;2023-05-16T06:39:21;2.35;;;2.15;;
38379;SDS011;38377;47.418;18.882;2023-05-16T06:41:47;3.58;;;2.78;;
38379;SDS011;38377;47.418;18.882;2023-05-16T06:44:13;3.03;;;2.40;;
38379;SDS011;38377;47.418;18.882;2023-05-16T06:46:38;6.35;;;2.80;;
38379;SDS011;38377;47.418;18.882;2023-05-16T06:49:04;3.67;;;3.25;;
38379;SDS011;38377;47.418;18.882;2023-05-16T06:51:31;7.05;;;5.00;;
38379;SDS011;38377;47.418;18.882;2023-05-16T06:53:57;6.13;;;4.68;;
38379;SDS011;38377;47.418;18.882;2023-05-16T06:56:22;8.68;;;6.20;;
38379;SDS011;38377;47.418;18.882;2023-05-16T06:58:48;8.88;;;6.65;;
38379;SDS011;38377;47.418;18.882;2023-05-16T07:01:15;7.40;;;6.35;;
38379;SDS011;38377;47.418;18.882;2023-05-16T07:03:40;7.28;;;6.00;;
38379;SDS011;38377;47.418;18.882;2023-05-16T07:06:06;9.50;;;5.75;;
38379;SDS011;38377;47.418;18.882;2023-05-16T07:08:32;7.75;;;6.30;;
38379;SDS011;38377;47.418;18.882;2023-05-16T07:11:00;8.10;;;6.78;;
38379;SDS011;38377;47.418;18.882;2023-05-16T07:13:26;9.73;;;7.22;;
38379;SDS011;38377;47.418;18.882;2023-05-16T07:15:51;9.80;;;6.57;;
38379;SDS011;38377;47.418;18.882;2023-05-16T07:18:18;7.15;;;6.00;;
38379;SDS011;38377;47.418;18.882;2023-05-16T07:20:43;8.15;;;6.13;;
38379;SDS011;38377;47.418;18.882;2023-05-16T07:23:10;9.18;;;6.50;;
38379;SDS011;38377;47.418;18.882;2023-05-16T07:25:35;9.88;;;7.57;;
38379;SDS011;38377;47.418;18.882;2023-05-16T07:28:01;8.40;;;7.05;;
38379;SDS011;38377;47.418;18.882;2023-05-16T07:30:27;10.25;;;7.35;;
38379;SDS011;38377;47.418;18.882;2023-05-16T07:32:53;17.85;;;8.15;;
38379;SDS011;38377;47.418;18.882;2023-05-16T07:35:19;10.82;;;7.15;;
38379;SDS011;38377;47.418;18.882;2023-05-16T07:37:44;12.80;;;8.30;;
38379;SDS011;38377;47.418;18.882;2023-05-16T07:40:10;13.93;;;8.23;;
38379;SDS011;38377;47.418;18.882;2023-05-16T07:42:36;11.00;;;8.70;;
38379;SDS011;38377;47.418;18.882;2023-05-16T07:45:02;9.80;;;8.25;;
38379;SDS011;38377;47.418;18.882;2023-05-16T07:47:29;12.77;;;8.57;;
38379;SDS011;38377;47.418;18.882;2023-05-16T07:49:54;13.10;;;10.15;;
38379;SDS011;38377;47.418;18.882;2023-05-16T07:52:20;13.88;;;10.77;;
38379;SDS011;38377;47.418;18.882;2023-05-16T07:54:46;20.38;;;12.35;;
38379;SDS011;38377;47.418;18.882;2023-05-16T07:57:14;16.95;;;12.75;;
38379;SDS011;38377;47.418;18.882;2023-05-16T07:59:41;19.90;;;12.07;;
38379;SDS011;38377;47.418;18.882;2023-05-16T08:02:07;16.58;;;12.40;;
38379;SDS011;38377;47.418;18.882;2023-05-16T08:04:33;21.58;;;12.65;;
38379;SDS011;38377;47.418;18.882;2023-05-16T08:06:58;19.95;;;13.35;;
38379;SDS011;38377;47.418;18.882;2023-05-16T08:09:24;16.65;;;12.48;;
38379;SDS011;38377;47.418;18.882;2023-05-16T08:11:50;17.73;;;12.27;;
38379;SDS011;38377;47.418;18.882;2023-05-16T08:14:16;16.77;;;12.63;;
38379;SDS011;38377;47.418;18.882;2023-05-16T08:16:42;19.65;;;14.05;;
38379;SDS011;38377;47.418;18.882;2023-05-16T08:19:08;19.70;;;13.77;;
38379;SDS011;38377;47.418;18.882;2023-05-16T08:21:34;20.30;;;14.45;;
38379;SDS011;38377;47.418;18.882;2023-05-16T08:24:00;21.67;;;15.13;;
38379;SDS011;38377;47.418;18.882;2023-05-16T08:26:25;21.40;;;12.88;;
38379;SDS011;38377;47.418;18.882;2023-05-16T08:28:51;23.27;;;14.18;;
38379;SDS011;38377;47.418;18.882;2023-05-16T08:31:17;25.42;;;14.32;;
38379;SDS011;38377;47.418;18.882;2023-05-16T08:33:42;18.25;;;13.57;;
38379;SDS011;38377;47.418;18.882;2023-05-16T08:36:08;19.88;;;13.57;;
38379;SDS011;38377;47.418;18.882;2023-05-16T08:38:34;23.23;;;15.07;;
38379;SDS011;38377;47.418;18.882;2023-05-16T08:41:00;21.48;;;13.23;;
38379;SDS011;38377;47.418;18.882;2023-05-16T08:43:26;25.20;;;13.88;;
38379;SDS011;38377;47.418;18.882;2023-05-16T08:45:52;22.42;;;14.10;;
38379;SDS011;38377;47.418;18.882;2023-05-16T08:48:18;22.75;;;15.45;;
38379;SDS011;38377;47.418;18.882;2023-05-16T08:50:47;21.60;;;13.82;;
38379;SDS011;38377;47.418;18.882;2023-05-16T08:53:13;24.02;;;13.85;;
38379;SDS011;38377;47.418;18.882;2023-05-16T08:55:44;22.52;;;14.02;;
38379;SDS011;38377;47.418;18.882;2023-05-16T08:58:11;23.05;;;13.48;;
38379;SDS011;38377;47.418;18.882;2023-05-16T09:00:39;26.92;;;15.27;;
38379;SDS011;38377;47.418;18.882;2023-05-16T09:03:06;20.23;;;13.30;;
38379;SDS011;38377;47.418;18.882;2023-05-16T09:05:31;20.90;;;12.75;;
38379;SDS011;38377;47.418;18.882;2023-05-16T09:07:58;21.02;;;12.85;;
38379;SDS011;38377;47.418;18.882;2023-05-16T09:10:24;20.48;;;14.02;;
38379;SDS011;38377;47.418;18.882;2023-05-16T09:12:49;15.90;;;11.45;;
38379;SDS011;38377;47.418;18.882;2023-05-16T09:15:16;18.58;;;11.52;;
38379;SDS011;38377;47.418;18.882;2023-05-16T09:17:44;18.13;;;11.43;;
38379;SDS011;38377;47.418;18.882;2023-05-16T09:20:11;14.63;;;10.07;;
38379;SDS011;38377;47.418;18.882;2023-05-16T09:22:39;15.43;;;10.15;;
38379;SDS011;38377;47.418;18.882;2023-05-16T09:25:15;17.00;;;11.27;;
38379;SDS011;38377;47.418;18.882;2023-05-16T09:27:41;16.50;;;10.98;;
38379;SDS011;38377;47.418;18.882;2023-05-16T09:30:27;12.48;;;8.68;;
38379;SDS011;38377;47.418;18.882;2023-05-16T09:32:55;13.90;;;9.23;;
38379;SDS011;38377;47.418;18.882;2023-05-16T09:35:21;11.48;;;8.75;;
38379;SDS011;38377;47.418;18.882;2023-05-16T09:37:48;11.43;;;8.63;;
38379;SDS011;38377;47.418;18.882;2023-05-16T09:40:18;11.80;;;8.55;;
38379;SDS011;38377;47.418;18.882;2023-05-16T09:42:45;9.63;;;8.20;;
38379;SDS011;38377;47.418;18.882;2023-05-16T09:45:11;11.80;;;7.43;;
38379;SDS011;38377;47.418;18.882;2023-05-16T09:47:38;10.10;;;8.18;;
38379;SDS011;38377;47.418;18.882;2023-05-16T09:50:13;14.10;;;8.55;;
38379;SDS011;38377;47.418;18.882;2023-05-16T09:52:40;10.75;;;7.53;;
38379;SDS011;38377;47.418;18.882;2023-05-16T09:55:07;8.73;;;7.50;;
38379;SDS011;38377;47.418;18.882;2023-05-16T09:57:37;12.07;;;8.07;;
38379;SDS011;38377;47.418;18.882;2023-05-16T10:00:06;13.57;;;9.10;;
38379;SDS011;38377;47.418;18.882;2023-05-16T10:02:35;13.38;;;9.05;;
38379;SDS011;38377;47.418;18.882;2023-05-16T10:05:02;11.90;;;8.60;;
38379;SDS011;38377;47.418;18.882;2023-05-16T10:07:29;15.80;;;9.90;;
38379;SDS011;38377;47.418;18.882;2023-05-16T10:09:57;12.95;;;8.32;;
38379;SDS011;38377;47.418;18.882;2023-05-16T10:12:25;16.05;;;10.18;;
38379;SDS011;38377;47.418;18.882;2023-05-16T10:17:21;15.50;;;10.45;;
38379;SDS011;38377;47.418;18.882;2023-05-16T10:19:48;15.30;;;10.05;;
38379;SDS011;38377;47.418;18.882;2023-05-16T10:22:14;13.82;;;11.15;;
38379;SDS011;38377;47.418;18.882;2023-05-16T10:27:19;18.58;;;10.90;;
38379;SDS011;38377;47.418;18.882;2023-05-16T10:29:45;17.77;;;11.98;;
38379;SDS011;38377;47.418;18.882;2023-05-16T10:32:12;16.98;;;11.60;;
38379;SDS011;38377;47.418;18.882;2023-05-16T10:34:38;17.05;;;11.40;;
38379;SDS011;38377;47.418;18.882;2023-05-16T10:37:05;18.50;;;12.52;;
38379;SDS011;38377;47.418;18.882;2023-05-16T10:39:32;18.25;;;12.13;;
38379;SDS011;38377;47.418;18.882;2023-05-16T10:41:58;19.17;;;12.82;;
38379;SDS011;38377;47.418;18.882;2023-05-16T10:44:24;20.42;;;13.23;;
38379;SDS011;38377;47.418;18.882;2023-05-16T10:46:50;17.27;;;12.25;;
38379;SDS011;38377;47.418;18.882;2023-05-16T10:49:23;17.90;;;12.75;;
38379;SDS011;38377;47.418;18.882;2023-05-16T10:52:06;17.80;;;11.57;;
38379;SDS011;38377;47.418;18.882;2023-05-16T10:54:39;20.17;;;13.60;;
38379;SDS011;38377;47.418;18.882;2023-05-16T10:57:08;20.33;;;13.32;;
38379;SDS011;38377;47.418;18.882;2023-05-16T11:02:23;20.92;;;13.57;;
38379;SDS011;38377;47.418;18.882;2023-05-16T11:04:59;22.92;;;13.07;;
38379;SDS011;38377;47.418;18.882;2023-05-16T11:07:32;18.67;;;14.07;;
38379;SDS011;38377;47.418;18.882;2023-05-16T11:10:03;16.98;;;12.63;;
38379;SDS011;38377;47.418;18.882;2023-05-16T11:20:41;16.88;;;12.38;;
38379;SDS011;38377;47.418;18.882;2023-05-16T11:25:41;15.27;;;11.27;;
38379;SDS011;38377;47.418;18.882;2023-05-16T11:28:09;16.08;;;11.23;;
38379;SDS011;38377;47.418;18.882;2023-05-16T11:30:45;15.95;;;11.30;;
38379;SDS011;38377;47.418;18.882;2023-05-16T11:33:13;14.20;;;11.38;;
38379;SDS011;38377;47.418;18.882;2023-05-16T11:35:40;17.15;;;12.35;;
38379;SDS011;38377;47.418;18.882;2023-05-16T11:38:10;15.15;;;11.25;;
38379;SDS011;38377;47.418;18.882;2023-05-16T11:40:40;18.70;;;13.15;;
38379;SDS011;38377;47.418;18.882;2023-05-16T11:43:07;18.67;;;13.40;;
38379;SDS011;38377;47.418;18.882;2023-05-16T11:45:33;18.15;;;13.57;;
38379;SDS011;38377;47.418;18.882;2023-05-16T11:48:00;15.35;;;11.60;;
38379;SDS011;38377;47.418;18.882;2023-05-16T11:50:30;14.27;;;11.20;;
38379;SDS011;38377;47.418;18.882;2023-05-16T11:52:58;17.70;;;13.00;;
38379;SDS011;38377;47.418;18.882;2023-05-16T11:55:25;15.57;;;11.95;;
38379;SDS011;38377;47.418;18.882;2023-05-16T11:57:53;14.50;;;11.43;;
38379;SDS011;38377;47.418;18.882;2023-05-16T12:00:21;13.88;;;10.40;;
38379;SDS011;38377;47.418;18.882;2023-05-16T12:02:49;16.27;;;12.05;;
38379;SDS011;38377;47.418;18.882;2023-05-16T12:05:16;16.27;;;10.50;;
38379;SDS011;38377;47.418;18.882;2023-05-16T12:07:44;14.27;;;10.20;;
38379;SDS011;38377;47.418;18.882;2023-05-16T12:10:12;12.95;;;9.90;;
38379;SDS011;38377;47.418;18.882;2023-05-16T12:12:40;14.77;;;11.05;;
38379;SDS011;38377;47.418;18.882;2023-05-16T12:15:07;13.63;;;11.20;;
38379;SDS011;38377;47.418;18.882;2023-05-16T12:17:34;13.80;;;11.13;;
38379;SDS011;38377;47.418;18.882;2023-05-16T12:20:01;15.43;;;10.45;;
38379;SDS011;38377;47.418;18.882;2023-05-16T12:22:35;14.93;;;10.77;;
38379;SDS011;38377;47.418;18.882;2023-05-16T12:27:53;13.05;;;10.45;;
38379;SDS011;38377;47.418;18.882;2023-05-16T12:30:20;17.00;;;12.05;;
38379;SDS011;38377;47.418;18.882;2023-05-16T12:35:23;14.93;;;11.60;;
38379;SDS011;38377;47.418;18.882;2023-05-16T12:37:50;14.68;;;10.73;;
38379;SDS011;38377;47.418;18.882;2023-05-16T12:40:16;18.80;;;13.82;;
38379;SDS011;38377;47.418;18.882;2023-05-16T12:42:44;14.90;;;11.25;;
38379;SDS011;38377;47.418;18.882;2023-05-16T12:45:14;15.05;;;11.27;;
38379;SDS011;38377;47.418;18.882;2023-05-16T12:47:43;18.52;;;11.98;;
38379;SDS011;38377;47.418;18.882;2023-05-16T12:50:10;14.75;;;10.75;;
38379;SDS011;38377;47.418;18.882;2023-05-16T12:52:44;16.42;;;11.50;;
38379;SDS011;38377;47.418;18.882;2023-05-16T12:55:12;16.23;;;11.05;;
38379;SDS011;38377;47.418;18.882;2023-05-16T12:57:40;11.75;;;9.63;;
38379;SDS011;38377;47.418;18.882;2023-05-16T13:00:07;17.52;;;12.02;;
38379;SDS011;38377;47.418;18.882;2023-05-16T13:02:36;15.98;;;11.20;;
38379;SDS011;38377;47.418;18.882;2023-05-16T13:05:02;15.27;;;10.80;;
38379;SDS011;38377;47.418;18.882;2023-05-16T13:07:28;13.10;;;10.00;;
38379;SDS011;38377;47.418;18.882;2023-05-16T13:09:54;12.55;;;10.50;;
38379;SDS011;38377;47.418;18.882;2023-05-16T13:12:20;13.52;;;10.82;;
38379;SDS011;38377;47.418;18.882;2023-05-16T13:14:50;13.98;;;9.90;;
38379;SDS011;38377;47.418;18.882;2023-05-16T13:17:16;14.82;;;10.85;;
38379;SDS011;38377;47.418;18.882;2023-05-16T13:19:42;13.05;;;10.15;;
38379;SDS011;38377;47.418;18.882;2023-05-16T13:22:08;14.88;;;10.68;;
38379;SDS011;38377;47.418;18.882;2023-05-16T13:24:34;16.83;;;10.70;;
38379;SDS011;38377;47.418;18.882;2023-05-16T13:26:59;15.90;;;11.05;;
38379;SDS011;38377;47.418;18.882;2023-05-16T13:29:25;11.68;;;9.88;;
38379;SDS011;38377;47.418;18.882;2023-05-16T13:31:51;13.13;;;10.80;;
38379;SDS011;38377;47.418;18.882;2023-05-16T13:34:17;12.88;;;10.27;;
38379;SDS011;38377;47.418;18.882;2023-05-16T13:36:42;12.60;;;10.13;;
38379;SDS011;38377;47.418;18.882;2023-05-16T13:39:10;11.63;;;9.73;;
38379;SDS011;38377;47.418;18.882;2023-05-16T13:41:36;12.85;;;10.25;;
38379;SDS011;38377;47.418;18.882;2023-05-16T13:44:04;14.77;;;11.30;;
38379;SDS011;38377;47.418;18.882;2023-05-16T13:46:30;14.23;;;9.52;;
38379;SDS011;38377;47.418;18.882;2023-05-16T13:48:56;13.85;;;10.20;;
38379;SDS011;38377;47.418;18.882;2023-05-16T13:51:22;15.77;;;11.13;;
38379;SDS011;38377;47.418;18.882;2023-05-16T13:53:47;15.93;;;11.80;;
38379;SDS011;38377;47.418;18.882;2023-05-16T13:56:13;14.73;;;10.45;;
38379;SDS011;38377;47.418;18.882;2023-05-16T13:58:39;14.43;;;10.50;;
38379;SDS011;38377;47.418;18.882;2023-05-16T14:01:05;14.55;;;10.18;;
38379;SDS011;38377;47.418;18.882;2023-05-16T14:03:31;13.57;;;9.32;;
38379;SDS011;38377;47.418;18.882;2023-05-16T14:05:57;13.63;;;10.07;;
38379;SDS011;38377;47.418;18.882;2023-05-16T14:08:23;17.33;;;10.70;;
38379;SDS011;38377;47.418;18.882;2023-05-16T14:10:48;12.80;;;10.32;;
38379;SDS011;38377;47.418;18.882;2023-05-16T14:13:14;22.40;;;12.30;;
38379;SDS011;38377;47.418;18.882;2023-05-16T14:15:40;14.85;;;11.65;;
38379;SDS011;38377;47.418;18.882;2023-05-16T14:18:05;12.88;;;9.23;;
38379;SDS011;38377;47.418;18.882;2023-05-16T14:20:32;12.05;;;9.25;;
38379;SDS011;38377;47.418;18.882;2023-05-16T14:22:58;11.15;;;9.32;;
38379;SDS011;38377;47.418;18.882;2023-05-16T14:25:23;13.75;;;9.30;;
38379;SDS011;38377;47.418;18.882;2023-05-16T14:27:49;13.13;;;9.32;;
38379;SDS011;38377;47.418;18.882;2023-05-16T14:30:15;10.65;;;8.77;;
38379;SDS011;38377;47.418;18.882;2023-05-16T14:32:41;12.50;;;9.18;;
38379;SDS011;38377;47.418;18.882;2023-05-16T14:35:07;12.52;;;9.95;;
38379;SDS011;38377;47.418;18.882;2023-05-16T14:37:33;13.95;;;9.30;;
38379;SDS011;38377;47.418;18.882;2023-05-16T14:39:59;10.85;;;9.38;;
38379;SDS011;38377;47.418;18.882;2023-05-16T14:42:25;12.45;;;8.57;;
38379;SDS011;38377;47.418;18.882;2023-05-16T14:44:51;11.43;;;8.63;;
38379;SDS011;38377;47.418;18.882;2023-05-16T14:47:17;12.60;;;9.02;;
38379;SDS011;38377;47.418;18.882;2023-05-16T14:49:43;11.07;;;9.52;;
38379;SDS011;38377;47.418;18.882;2023-05-16T14:52:08;12.52;;;9.90;;